sensor_id;sensor_type;location;lat;lon;timestamp;pressure;altitude;pressure_sealevel;temperature;humidity
4858;BME280;58975;51.978;8.472;2023-07-16T00:03:14;99683.81;;;18.92;100.00
4858;BME280;58975;51.978;8.472;2023-07-16T00:08:10;99696.28;;;18.93;100.00
4858;BME280;58975;51.978;8.472;2023-07-16T00:13:07;99701.47;;;18.94;100.00
4858;BME280;58975;51.978;8.472;2023-07-16T00:18:03;99693.13;;;18.89;100.00
4858;BME280;58975;51.978;8.472;2023-07-16T00:23:01;99683.09;;;18.83;100.00
4858;BME280;58975;51.978;8.472;2023-07-16T00:27:58;99695.41;;;18.85;100.00
4858;BME280;58975;51.978;8.472;2023-07-16T00:32:55;99718.56;;;18.80;100.00
4858;BME280;58975;51.978;8.472;2023-07-16T00:37:51;99703.41;;;18.79;100.00
4858;BME280;58975;51.978;8.472;2023-07-16T00:42:48;99727.44;;;18.74;100.00
4858;BME280;58975;51.978;8.472;2023-07-16T00:47:45;99722.50;;;18.77;100.00
4858;BME280;58975;51.978;8.472;2023-07-16T00:52:42;99713.13;;;18.73;100.00
4858;BME280;58975;51.978;8.472;2023-07-16T00:57:40;99716.88;;;18.79;100.00
4858;BME280;58975;51.978;8.472;2023-07-16T01:02:37;99723.06;;;18.73;100.00
4858;BME280;58975;51.978;8.472;2023-07-16T01:07:35;99730.06;;;18.67;100.00
4858;BME280;58975;51.978;8.472;2023-07-16T01:12:33;99731.72;;;18.68;100.00
4858;BME280;58975;51.978;8.472;2023-07-16T01:17:30;99743.34;;;18.69;100.00
4858;BME280;58975;51.978;8.472;2023-07-16T01:27:59;99746.34;;;18.59;100.00
4858;BME280;58975;51.978;8.472;2023-07-16T01:33:03;99740.50;;;18.56;100.00
4858;BME280;58975;51.978;8.472;2023-07-16T01:38:01;99739.56;;;18.49;100.00
4858;BME280;58975;51.978;8.472;2023-07-16T01:42:57;99730.81;;;18.47;100.00
4858;BME280;58975;51.978;8.472;2023-07-16T01:53:18;99737.09;;;18.32;100.00
4858;BME280;58975;51.978;8.472;2023-07-16T01:58:15;99738.88;;;18.25;100.00
4858;BME280;58975;51.978;8.472;2023-07-16T02:03:11;99730.22;;;18.15;100.00
4858;BME280;58975;51.978;8.472;2023-07-16T02:08:08;99743.19;;;18.05;100.00
4858;BME280;58975;51.978;8.472;2023-07-16T02:13:04;99732.78;;;18.02;100.00
4858;BME280;58975;51.978;8.472;2023-07-16T02:18:01;99737.16;;;18.03;100.00
4858;BME280;58975;51.978;8.472;2023-07-16T02:22:57;99761.41;;;18.03;100.00
4858;BME280;58975;51.978;8.472;2023-07-16T02:27:54;99766.50;;;17.98;100.00
4858;BME280;58975;51.978;8.472;2023-07-16T02:32:50;99764.53;;;17.92;100.00
4858;BME280;58975;51.978;8.472;2023-07-16T02:37:47;99774.00;;;17.88;100.00
4858;BME280;58975;51.978;8.472;2023-07-16T02:42:44;99781.84;;;17.83;100.00
4858;BME280;58975;51.978;8.472;2023-07-16T02:47:40;99784.59;;;17.75;100.00
4858;BME280;58975;51.978;8.472;2023-07-16T02:52:37;99793.78;;;17.66;100.00
4858;BME280;58975;51.978;8.472;2023-07-16T02:57:33;99793.84;;;17.58;100.00
4858;BME280;58975;51.978;8.472;2023-07-16T03:02:30;99802.72;;;17.43;100.00
4858;BME280;58975;51.978;8.472;2023-07-16T03:07:26;99807.88;;;17.30;100.00
4858;BME280;58975;51.978;8.472;2023-07-16T03:12:23;99797.38;;;17.21;100.00
4858;BME280;58975;51.978;8.472;2023-07-16T03:17:22;99802.97;;;17.11;100.00
4858;BME280;58975;51.978;8.472;2023-07-16T03:22:19;99811.72;;;17.13;100.00
4858;BME280;58975;51.978;8.472;2023-07-16T03:27:16;99820.00;;;17.03;100.00
4858;BME280;58975;51.978;8.472;2023-07-16T03:32:15;99829.28;;;17.01;100.00
4858;BME280;58975;51.978;8.472;2023-07-16T03:37:11;99837.53;;;16.99;100.00
4858;BME280;58975;51.978;8.472;2023-07-16T03:42:08;99844.63;;;16.92;100.00
4858;BME280;58975;51.978;8.472;2023-07-16T03:47:04;99844.09;;;16.97;100.00
4858;BME280;58975;51.978;8.472;2023-07-16T03:52:01;99851.75;;;16.85;100.00
4858;BME280;58975;51.978;8.472;2023-07-16T03:56:57;99843.13;;;16.90;100.00
4858;BME280;58975;51.978;8.472;2023-07-16T04:01:54;99866.72;;;16.80;100.00
4858;BME280;58975;51.978;8.472;2023-07-16T04:06:50;99854.97;;;16.81;100.00
4858;BME280;58975;51.978;8.472;2023-07-16T04:11:47;99871.56;;;16.84;100.00
4858;BME280;58975;51.978;8.472;2023-07-16T04:16:43;99874.91;;;16.86;100.00
4858;BME280;58975;51.978;8.472;2023-07-16T04:21:40;99873.34;;;17.00;100.00
4858;BME280;58975;51.978;8.472;2023-07-16T04:26:36;99883.91;;;17.01;100.00
4858;BME280;58975;51.978;8.472;2023-07-16T04:31:33;99886.78;;;17.00;100.00
4858;BME280;58975;51.978;8.472;2023-07-16T04:36:30;99890.31;;;17.00;100.00
4858;BME280;58975;51.978;8.472;2023-07-16T04:41:28;99887.28;;;17.03;100.00
4858;BME280;58975;51.978;8.472;2023-07-16T04:46:24;99892.78;;;17.10;100.00
4858;BME280;58975;51.978;8.472;2023-07-16T04:51:21;99895.78;;;17.15;100.00
4858;BME280;58975;51.978;8.472;2023-07-16T04:56:17;99893.03;;;17.23;100.00
4858;BME280;58975;51.978;8.472;2023-07-16T05:01:14;99892.56;;;17.42;100.00
4858;BME280;58975;51.978;8.472;2023-07-16T05:06:11;99890.16;;;17.47;100.00
4858;BME280;58975;51.978;8.472;2023-07-16T05:11:07;99897.84;;;17.59;100.00
4858;BME280;58975;51.978;8.472;2023-07-16T05:16:04;99903.66;;;17.70;100.00
4858;BME280;58975;51.978;8.472;2023-07-16T05:21:01;99897.19;;;17.79;100.00
4858;BME280;58975;51.978;8.472;2023-07-16T05:25:57;99908.34;;;17.91;100.00
4858;BME280;58975;51.978;8.472;2023-07-16T05:30:59;99913.28;;;18.02;100.00
4858;BME280;58975;51.978;8.472;2023-07-16T05:35:56;99911.28;;;18.19;100.00
4858;BME280;58975;51.978;8.472;2023-07-16T05:40:52;99931.63;;;18.21;100.00
4858;BME280;58975;51.978;8.472;2023-07-16T05:45:49;99938.03;;;18.35;100.00
4858;BME280;58975;51.978;8.472;2023-07-16T05:50:45;99946.81;;;18.37;100.00
4858;BME280;58975;51.978;8.472;2023-07-16T05:55:42;99953.59;;;18.33;100.00
4858;BME280;58975;51.978;8.472;2023-07-16T06:00:39;99957.22;;;18.40;100.00
4858;BME280;58975;51.978;8.472;2023-07-16T06:05:35;99958.81;;;18.49;100.00
4858;BME280;58975;51.978;8.472;2023-07-16T06:10:34;99978.00;;;18.69;100.00
4858;BME280;58975;51.978;8.472;2023-07-16T06:15:31;99977.91;;;18.62;100.00
4858;BME280;58975;51.978;8.472;2023-07-16T06:20:27;99993.72;;;18.65;100.00
4858;BME280;58975;51.978;8.472;2023-07-16T06:25:25;100002.00;;;18.64;100.00
4858;BME280;58975;51.978;8.472;2023-07-16T06:30:21;99996.13;;;18.75;100.00
4858;BME280;58975;51.978;8.472;2023-07-16T06:35:18;100010.16;;;19.14;100.00
4858;BME280;58975;51.978;8.472;2023-07-16T06:40:14;100008.69;;;18.82;100.00
4858;BME280;58975;51.978;8.472;2023-07-16T06:45:11;100015.03;;;18.75;100.00
4858;BME280;58975;51.978;8.472;2023-07-16T06:50:08;100021.53;;;19.24;100.00
4858;BME280;58975;51.978;8.472;2023-07-16T06:55:04;100013.06;;;19.27;100.00
4858;BME280;58975;51.978;8.472;2023-07-16T07:00:02;100021.59;;;19.46;100.00
4858;BME280;58975;51.978;8.472;2023-07-16T07:04:58;100038.19;;;19.28;100.00
4858;BME280;58975;51.978;8.472;2023-07-16T07:09:55;100019.47;;;18.68;100.00
4858;BME280;58975;51.978;8.472;2023-07-16T07:14:52;100031.28;;;18.67;100.00
4858;BME280;58975;51.978;8.472;2023-07-16T07:19:48;100039.59;;;18.80;100.00
4858;BME280;58975;51.978;8.472;2023-07-16T07:24:45;100032.88;;;18.76;100.00
4858;BME280;58975;51.978;8.472;2023-07-16T07:29:41;100039.38;;;18.67;100.00
4858;BME280;58975;51.978;8.472;2023-07-16T07:34:39;100038.28;;;18.90;100.00
4858;BME280;58975;51.978;8.472;2023-07-16T07:39:35;100041.09;;;19.77;100.00
4858;BME280;58975;51.978;8.472;2023-07-16T07:44:32;100026.44;;;20.28;100.00
4858;BME280;58975;51.978;8.472;2023-07-16T07:49:28;100029.59;;;20.60;100.00
4858;BME280;58975;51.978;8.472;2023-07-16T07:54:25;100028.72;;;20.53;100.00
4858;BME280;58975;51.978;8.472;2023-07-16T07:59:21;100035.53;;;20.70;100.00
4858;BME280;58975;51.978;8.472;2023-07-16T08:04:18;100051.25;;;19.75;100.00
4858;BME280;58975;51.978;8.472;2023-07-16T08:09:15;100049.56;;;19.74;100.00
4858;BME280;58975;51.978;8.472;2023-07-16T08:14:11;100049.56;;;19.74;100.00
4858;BME280;58975;51.978;8.472;2023-07-16T08:19:08;100044.31;;;20.08;96.47
4858;BME280;58975;51.978;8.472;2023-07-16T08:24:05;100050.91;;;19.99;96.97
4858;BME280;58975;51.978;8.472;2023-07-16T08:29:03;100060.53;;;19.87;100.00
4858;BME280;58975;51.978;8.472;2023-07-16T08:34:00;100071.69;;;19.33;100.00
4858;BME280;58975;51.978;8.472;2023-07-16T08:38:59;100063.59;;;19.63;100.00
4858;BME280;58975;51.978;8.472;2023-07-16T08:43:56;100077.56;;;19.22;100.00
4858;BME280;58975;51.978;8.472;2023-07-16T08:48:53;100076.84;;;19.43;95.51
4858;BME280;58975;51.978;8.472;2023-07-16T08:53:49;100083.94;;;19.80;94.96
4858;BME280;58975;51.978;8.472;2023-07-16T08:58:47;100080.63;;;20.91;90.50
4858;BME280;58975;51.978;8.472;2023-07-16T09:03:43;100082.47;;;21.11;86.74
4858;BME280;58975;51.978;8.472;2023-07-16T09:08:40;100094.13;;;21.12;82.62
4858;BME280;58975;51.978;8.472;2023-07-16T09:13:37;100092.13;;;21.20;81.76
4858;BME280;58975;51.978;8.472;2023-07-16T09:18:33;100084.34;;;20.90;82.53
4858;BME280;58975;51.978;8.472;2023-07-16T09:23:30;100101.34;;;21.33;84.61
4858;BME280;58975;51.978;8.472;2023-07-16T09:28:27;100095.03;;;21.26;81.88
4858;BME280;58975;51.978;8.472;2023-07-16T09:33:23;100100.28;;;21.34;80.85
4858;BME280;58975;51.978;8.472;2023-07-16T09:38:23;100094.38;;;21.58;82.30
4858;BME280;58975;51.978;8.472;2023-07-16T09:43:22;100106.28;;;21.63;78.83
4858;BME280;58975;51.978;8.472;2023-07-16T09:48:19;100094.56;;;21.15;71.64
4858;BME280;58975;51.978;8.472;2023-07-16T09:53:18;100095.44;;;22.17;75.32
4858;BME280;58975;51.978;8.472;2023-07-16T09:58:18;100094.84;;;22.48;69.40
4858;BME280;58975;51.978;8.472;2023-07-16T10:03:16;100097.06;;;22.05;69.56
4858;BME280;58975;51.978;8.472;2023-07-16T10:08:18;100092.78;;;21.77;71.67
4858;BME280;58975;51.978;8.472;2023-07-16T10:13:16;100107.53;;;21.20;69.65
4858;BME280;58975;51.978;8.472;2023-07-16T10:18:22;100122.81;;;21.75;74.25
4858;BME280;58975;51.978;8.472;2023-07-16T10:23:19;100104.03;;;21.80;67.36
4858;BME280;58975;51.978;8.472;2023-07-16T10:28:15;100110.03;;;22.16;67.37
4858;BME280;58975;51.978;8.472;2023-07-16T10:33:12;100118.41;;;22.15;69.62
4858;BME280;58975;51.978;8.472;2023-07-16T10:38:10;100116.25;;;22.04;69.22
4858;BME280;58975;51.978;8.472;2023-07-16T10:43:06;100099.44;;;22.94;64.47
4858;BME280;58975;51.978;8.472;2023-07-16T10:48:03;100118.16;;;22.16;63.80
4858;BME280;58975;51.978;8.472;2023-07-16T10:53:00;100133.66;;;21.75;65.12
4858;BME280;58975;51.978;8.472;2023-07-16T10:57:57;100137.41;;;21.74;64.92
4858;BME280;58975;51.978;8.472;2023-07-16T11:02:54;100132.22;;;22.53;65.01
4858;BME280;58975;51.978;8.472;2023-07-16T11:07:51;100144.81;;;21.93;64.00
4858;BME280;58975;51.978;8.472;2023-07-16T11:12:52;100132.22;;;22.53;62.07
4858;BME280;58975;51.978;8.472;2023-07-16T11:17:49;100130.97;;;22.49;63.54
4858;BME280;58975;51.978;8.472;2023-07-16T11:22:47;100124.09;;;23.19;59.45
4858;BME280;58975;51.978;8.472;2023-07-16T11:27:44;100132.06;;;22.81;63.09
4858;BME280;58975;51.978;8.472;2023-07-16T11:32:46;100134.28;;;22.51;61.07
4858;BME280;58975;51.978;8.472;2023-07-16T11:37:44;100137.19;;;22.30;60.63
4858;BME280;58975;51.978;8.472;2023-07-16T11:42:41;100139.75;;;23.43;60.29
4858;BME280;58975;51.978;8.472;2023-07-16T11:47:40;100140.34;;;23.51;63.51
4858;BME280;58975;51.978;8.472;2023-07-16T11:52:40;100147.69;;;22.66;58.38
4858;BME280;58975;51.978;8.472;2023-07-16T11:57:37;100144.59;;;22.95;60.40
4858;BME280;58975;51.978;8.472;2023-07-16T12:02:33;100144.81;;;22.74;59.11
4858;BME280;58975;51.978;8.472;2023-07-16T12:07:38;100133.88;;;23.33;60.08
4858;BME280;58975;51.978;8.472;2023-07-16T12:12:35;100146.03;;;23.24;57.37
4858;BME280;58975;51.978;8.472;2023-07-16T12:17:35;100142.28;;;22.98;58.64
4858;BME280;58975;51.978;8.472;2023-07-16T12:22:32;100142.66;;;23.48;58.85
4858;BME280;58975;51.978;8.472;2023-07-16T12:27:29;100154.56;;;23.34;57.73
4858;BME280;58975;51.978;8.472;2023-07-16T12:32:25;100146.03;;;23.43;59.10
4858;BME280;58975;51.978;8.472;2023-07-16T12:37:22;100147.66;;;23.58;56.60
4858;BME280;58975;51.978;8.472;2023-07-16T12:42:19;100167.94;;;23.55;57.68
4858;BME280;58975;51.978;8.472;2023-07-16T12:47:16;100152.31;;;22.98;59.67
4858;BME280;58975;51.978;8.472;2023-07-16T12:52:12;100158.53;;;23.51;55.39
4858;BME280;58975;51.978;8.472;2023-07-16T12:57:09;100164.00;;;22.92;57.03
4858;BME280;58975;51.978;8.472;2023-07-16T13:02:06;100160.53;;;24.33;57.79
4858;BME280;58975;51.978;8.472;2023-07-16T13:07:03;100159.34;;;23.58;55.25
4858;BME280;58975;51.978;8.472;2023-07-16T13:12:00;100163.75;;;23.59;56.98
4858;BME280;58975;51.978;8.472;2023-07-16T13:16:56;100179.03;;;23.60;54.07
4858;BME280;58975;51.978;8.472;2023-07-16T13:21:53;100171.72;;;23.01;57.67
4858;BME280;58975;51.978;8.472;2023-07-16T13:26:50;100167.16;;;22.89;55.64
4858;BME280;58975;51.978;8.472;2023-07-16T13:31:46;100177.78;;;22.90;55.17
4858;BME280;58975;51.978;8.472;2023-07-16T13:36:43;100172.97;;;23.19;56.20
4858;BME280;58975;51.978;8.472;2023-07-16T13:41:39;100182.41;;;23.16;57.40
4858;BME280;58975;51.978;8.472;2023-07-16T13:46:36;100177.25;;;23.85;58.29
4858;BME280;58975;51.978;8.472;2023-07-16T13:51:34;100190.97;;;24.17;55.65
4858;BME280;58975;51.978;8.472;2023-07-16T13:56:30;100195.16;;;24.57;53.67
4858;BME280;58975;51.978;8.472;2023-07-16T14:01:27;100185.28;;;24.12;55.40
4858;BME280;58975;51.978;8.472;2023-07-16T14:06:23;100191.16;;;24.15;55.69
4858;BME280;58975;51.978;8.472;2023-07-16T14:11:21;100182.78;;;23.59;56.76
4858;BME280;58975;51.978;8.472;2023-07-16T14:16:19;100186.53;;;23.58;55.39
4858;BME280;58975;51.978;8.472;2023-07-16T14:21:16;100197.63;;;23.56;55.55
4858;BME280;58975;51.978;8.472;2023-07-16T14:26:12;100199.53;;;23.43;58.35
4858;BME280;58975;51.978;8.472;2023-07-16T14:31:09;100197.41;;;23.58;56.42
4858;BME280;58975;51.978;8.472;2023-07-16T14:36:06;100199.13;;;24.03;55.60
4858;BME280;58975;51.978;8.472;2023-07-16T14:41:03;100204.47;;;23.72;56.33
4858;BME280;58975;51.978;8.472;2023-07-16T14:46:00;100191.31;;;24.27;57.97
4858;BME280;58975;51.978;8.472;2023-07-16T14:50:58;100193.25;;;23.49;57.10
4858;BME280;58975;51.978;8.472;2023-07-16T14:55:54;100187.28;;;23.91;57.18
4858;BME280;58975;51.978;8.472;2023-07-16T15:00:51;100191.53;;;23.74;57.06
4858;BME280;58975;51.978;8.472;2023-07-16T15:05:48;100188.16;;;23.72;56.27
4858;BME280;58975;51.978;8.472;2023-07-16T15:10:44;100189.91;;;23.60;58.13
4858;BME280;58975;51.978;8.472;2023-07-16T15:15:47;100186.94;;;23.42;57.19
4858;BME280;58975;51.978;8.472;2023-07-16T15:20:44;100191.00;;;23.97;56.54
4858;BME280;58975;51.978;8.472;2023-07-16T15:25:41;100189.31;;;24.54;54.68
4858;BME280;58975;51.978;8.472;2023-07-16T15:30:38;100192.75;;;24.74;56.33
4858;BME280;58975;51.978;8.472;2023-07-16T15:35:35;100177.88;;;23.87;55.29
4858;BME280;58975;51.978;8.472;2023-07-16T15:40:33;100180.13;;;23.97;56.65
4858;BME280;58975;51.978;8.472;2023-07-16T15:45:30;100188.25;;;22.93;56.45
4858;BME280;58975;51.978;8.472;2023-07-16T15:50:27;100203.06;;;22.84;57.98
4858;BME280;58975;51.978;8.472;2023-07-16T15:55:24;100192.56;;;23.73;57.02
4858;BME280;58975;51.978;8.472;2023-07-16T16:00:20;100198.84;;;24.31;55.16
4858;BME280;58975;51.978;8.472;2023-07-16T16:05:18;100197.44;;;23.45;57.97
4858;BME280;58975;51.978;8.472;2023-07-16T16:10:15;100184.06;;;23.10;56.41
4858;BME280;58975;51.978;8.472;2023-07-16T16:15:12;100190.09;;;23.26;58.47
4858;BME280;58975;51.978;8.472;2023-07-16T16:20:09;100188.25;;;23.06;58.24
4858;BME280;58975;51.978;8.472;2023-07-16T16:25:06;100194.50;;;22.81;58.43
4858;BME280;58975;51.978;8.472;2023-07-16T16:30:03;100189.06;;;23.14;57.71
4858;BME280;58975;51.978;8.472;2023-07-16T16:35:01;100195.31;;;23.34;58.25
4858;BME280;58975;51.978;8.472;2023-07-16T16:39:57;100197.72;;;23.94;57.77
4858;BME280;58975;51.978;8.472;2023-07-16T16:44:55;100193.41;;;25.01;56.03
4858;BME280;58975;51.978;8.472;2023-07-16T16:49:51;100192.47;;;25.56;52.59
4858;BME280;58975;51.978;8.472;2023-07-16T16:54:48;100192.00;;;24.91;54.20
4858;BME280;58975;51.978;8.472;2023-07-16T16:59:44;100182.63;;;24.49;54.14
4858;BME280;58975;51.978;8.472;2023-07-16T17:04:41;100181.31;;;23.63;54.09
4858;BME280;58975;51.978;8.472;2023-07-16T17:09:40;100180.88;;;23.66;55.64
4858;BME280;58975;51.978;8.472;2023-07-16T17:14:37;100188.81;;;24.63;55.57
4858;BME280;58975;51.978;8.472;2023-07-16T17:19:36;100195.31;;;24.62;51.32
4858;BME280;58975;51.978;8.472;2023-07-16T17:24:32;100194.97;;;25.33;50.25
4858;BME280;58975;51.978;8.472;2023-07-16T17:29:29;100181.75;;;28.72;44.42
4858;BME280;58975;51.978;8.472;2023-07-16T17:34:27;100194.19;;;26.83;45.11
4858;BME280;58975;51.978;8.472;2023-07-16T17:39:25;100201.94;;;26.45;47.07
4858;BME280;58975;51.978;8.472;2023-07-16T17:44:21;100200.88;;;25.55;48.32
4858;BME280;58975;51.978;8.472;2023-07-16T17:49:18;100196.56;;;25.40;48.47
4858;BME280;58975;51.978;8.472;2023-07-16T17:54:14;100206.66;;;24.21;51.17
4858;BME280;58975;51.978;8.472;2023-07-16T17:59:11;100202.84;;;23.25;52.70
4858;BME280;58975;51.978;8.472;2023-07-16T18:04:07;100198.03;;;22.68;55.68
4858;BME280;58975;51.978;8.472;2023-07-16T18:09:04;100213.34;;;22.28;57.32
4858;BME280;58975;51.978;8.472;2023-07-16T18:14:03;100212.84;;;22.11;57.80
4858;BME280;58975;51.978;8.472;2023-07-16T18:19:00;100215.22;;;22.28;56.71
4858;BME280;58975;51.978;8.472;2023-07-16T18:23:57;100212.31;;;22.23;57.36
4858;BME280;58975;51.978;8.472;2023-07-16T18:28:53;100210.38;;;22.16;58.25
4858;BME280;58975;51.978;8.472;2023-07-16T18:33:50;100220.44;;;21.88;59.90
4858;BME280;58975;51.978;8.472;2023-07-16T18:38:49;100224.56;;;21.78;62.26
4858;BME280;58975;51.978;8.472;2023-07-16T18:43:45;100220.97;;;21.70;63.37
4858;BME280;58975;51.978;8.472;2023-07-16T18:48:42;100221.66;;;21.79;67.15
4858;BME280;58975;51.978;8.472;2023-07-16T18:53:38;100230.25;;;21.55;69.75
4858;BME280;58975;51.978;8.472;2023-07-16T18:58:35;100234.66;;;21.56;70.37
4858;BME280;58975;51.978;8.472;2023-07-16T19:03:31;100232.31;;;21.53;71.68
4858;BME280;58975;51.978;8.472;2023-07-16T19:08:28;100240.19;;;20.99;72.12
4858;BME280;58975;51.978;8.472;2023-07-16T19:13:25;100239.06;;;20.65;75.80
4858;BME280;58975;51.978;8.472;2023-07-16T19:18:21;100243.75;;;20.57;81.43
4858;BME280;58975;51.978;8.472;2023-07-16T19:23:18;100252.47;;;20.59;87.55
4858;BME280;58975;51.978;8.472;2023-07-16T19:28:15;100256.72;;;20.47;86.97
4858;BME280;58975;51.978;8.472;2023-07-16T19:33:13;100256.19;;;20.37;88.77
4858;BME280;58975;51.978;8.472;2023-07-16T19:38:09;100264.31;;;20.22;93.14
4858;BME280;58975;51.978;8.472;2023-07-16T19:43:06;100267.78;;;20.01;97.45
4858;BME280;58975;51.978;8.472;2023-07-16T19:48:02;100273.75;;;19.82;100.00
4858;BME280;58975;51.978;8.472;2023-07-16T19:53:03;100279.69;;;19.63;100.00
4858;BME280;58975;51.978;8.472;2023-07-16T19:58:00;100284.25;;;19.48;100.00
4858;BME280;58975;51.978;8.472;2023-07-16T20:02:56;100294.00;;;19.26;100.00
4858;BME280;58975;51.978;8.472;2023-07-16T20:07:53;100294.97;;;19.10;100.00
4858;BME280;58975;51.978;8.472;2023-07-16T20:12:53;100304.78;;;18.88;100.00
4858;BME280;58975;51.978;8.472;2023-07-16T20:17:49;100302.69;;;18.68;100.00
4858;BME280;58975;51.978;8.472;2023-07-16T20:22:46;100300.28;;;18.42;100.00
4858;BME280;58975;51.978;8.472;2023-07-16T20:27:45;100299.13;;;18.36;100.00
4858;BME280;58975;51.978;8.472;2023-07-16T20:32:42;100298.19;;;18.21;100.00
4858;BME280;58975;51.978;8.472;2023-07-16T20:37:38;100295.53;;;18.13;100.00
4858;BME280;58975;51.978;8.472;2023-07-16T20:42:35;100288.50;;;17.96;100.00
4858;BME280;58975;51.978;8.472;2023-07-16T20:47:31;100291.09;;;17.81;100.00
4858;BME280;58975;51.978;8.472;2023-07-16T20:52:28;100297.69;;;17.71;100.00
4858;BME280;58975;51.978;8.472;2023-07-16T20:57:24;100303.72;;;17.57;100.00
4858;BME280;58975;51.978;8.472;2023-07-16T21:02:21;100293.81;;;17.41;100.00
4858;BME280;58975;51.978;8.472;2023-07-16T21:07:18;100292.47;;;17.37;100.00
4858;BME280;58975;51.978;8.472;2023-07-16T21:12:14;100292.50;;;17.29;100.00
4858;BME280;58975;51.978;8.472;2023-07-16T21:17:11;100293.00;;;17.24;100.00
4858;BME280;58975;51.978;8.472;2023-07-16T21:22:07;100288.97;;;17.12;100.00
4858;BME280;58975;51.978;8.472;2023-07-16T21:27:04;100298.88;;;17.03;100.00
4858;BME280;58975;51.978;8.472;2023-07-16T21:32:01;100302.91;;;16.91;100.00
4858;BME280;58975;51.978;8.472;2023-07-16T21:36:57;100306.78;;;16.47;100.00
4858;BME280;58975;51.978;8.472;2023-07-16T21:41:54;100301.34;;;16.65;100.00
4858;BME280;58975;51.978;8.472;2023-07-16T21:46:50;100290.97;;;16.78;100.00
4858;BME280;58975;51.978;8.472;2023-07-16T21:51:47;100298.38;;;16.92;100.00
4858;BME280;58975;51.978;8.472;2023-07-16T21:56:44;100301.72;;;17.02;100.00
4858;BME280;58975;51.978;8.472;2023-07-16T22:01:40;100305.44;;;16.93;100.00
4858;BME280;58975;51.978;8.472;2023-07-16T22:06:37;100297.50;;;16.83;100.00
4858;BME280;58975;51.978;8.472;2023-07-16T22:11:35;100311.47;;;16.95;100.00
4858;BME280;58975;51.978;8.472;2023-07-16T22:16:35;100319.91;;;17.08;100.00
4858;BME280;58975;51.978;8.472;2023-07-16T22:21:32;100320.75;;;17.09;100.00
4858;BME280;58975;51.978;8.472;2023-07-16T22:26:28;100322.94;;;17.05;100.00
4858;BME280;58975;51.978;8.472;2023-07-16T22:31:25;100307.44;;;17.07;100.00
4858;BME280;58975;51.978;8.472;2023-07-16T22:36:22;100301.22;;;16.98;100.00
4858;BME280;58975;51.978;8.472;2023-07-16T22:41:19;100311.44;;;16.71;100.00
4858;BME280;58975;51.978;8.472;2023-07-16T22:46:15;100323.50;;;16.67;100.00
4858;BME280;58975;51.978;8.472;2023-07-16T22:51:12;100313.28;;;16.62;100.00
4858;BME280;58975;51.978;8.472;2023-07-16T22:56:09;100322.19;;;16.71;100.00
4858;BME280;58975;51.978;8.472;2023-07-16T23:01:07;100335.00;;;16.77;100.00
4858;BME280;58975;51.978;8.472;2023-07-16T23:06:04;100333.28;;;16.76;100.00
4858;BME280;58975;51.978;8.472;2023-07-16T23:11:01;100325.41;;;16.82;100.00
4858;BME280;58975;51.978;8.472;2023-07-16T23:15:58;100328.94;;;16.83;100.00
4858;BME280;58975;51.978;8.472;2023-07-16T23:20:54;100323.88;;;16.72;100.00
4858;BME280;58975;51.978;8.472;2023-07-16T23:25:51;100326.06;;;16.76;100.00
4858;BME280;58975;51.978;8.472;2023-07-16T23:30:47;100311.75;;;16.68;100.00
4858;BME280;58975;51.978;8.472;2023-07-16T23:35:44;100307.06;;;16.62;100.00
4858;BME280;58975;51.978;8.472;2023-07-16T23:40:41;100312.09;;;16.65;100.00
4858;BME280;58975;51.978;8.472;2023-07-16T23:45:39;100312.75;;;16.59;100.00
4858;BME280;58975;51.978;8.472;2023-07-16T23:50:35;100312.69;;;16.50;100.00
4858;BME280;58975;51.978;8.472;2023-07-16T23:55:32;100312.13;;;16.39;100.00
